Time;durP1;ratioP1;P1;durP2;ratioP2;P2;SDS_P1;SDS_P2;PMS_P1;PMS_P2;Temp;Humidity;BMP_temperature;BMP_pressure;BME280_temperature;BME280_humidity;BME280_pressure;Samples;Min_cycle;Max_cycle;Signal;HPM_P1;HPM_P2
2022/05/24 00:08:08;;;;;;;1.95;1.17;;;;;;;20.39;73.94;99612.28;25686367;23;20020;-62
2022/05/24 00:18:17;;;;;;;1.65;1.15;;;;;;;20.48;73.92;99619.28;25685195;23;20394;-62
2022/05/24 00:28:20;;;;;;;1.88;1.05;;;;;;;20.27;73.31;99609.19;25687075;23;20021;-62
2022/05/24 00:38:30;;;;;;;1.30;1.13;;;;;;;20.45;73.04;99653.97;25686000;23;20020;-62
2022/05/24 00:48:38;;;;;;;1.33;1.10;;;;;;;20.43;73.13;99646.03;25686206;23;20017;-62
2022/05/24 00:58:48;;;;;;;1.30;0.90;;;;;;;20.40;72.83;99636.44;25679691;23;20016;-63
2022/05/24 01:08:50;;;;;;;1.15;1.00;;;;;;;20.38;72.53;99643.91;25682963;23;20017;-63
2022/05/24 01:18:52;;;;;;;0.90;0.90;;;;;;;20.37;72.03;99636.81;25682636;23;20023;-62
2022/05/24 01:28:57;;;;;;;1.75;1.30;;;;;;;20.36;71.92;99637.00;25684720;23;20025;-62
2022/05/24 01:39:00;;;;;;;1.52;1.33;;;;;;;20.24;71.74;99617.66;25690268;23;20029;-62
2022/05/24 01:49:06;;;;;;;2.75;1.70;;;;;;;20.32;71.76;99616.75;25683131;23;20072;-63
2022/05/24 01:59:08;;;;;;;1.80;1.63;;;;;;;20.29;71.32;99620.66;25658492;23;20451;-63
2022/05/24 02:09:11;;;;;;;1.70;1.45;;;;;;;20.28;71.20;99618.97;25685235;23;20325;-62
2022/05/24 02:19:14;;;;;;;2.20;1.45;;;;;;;20.26;71.07;99618.31;25684519;23;20020;-62
2022/05/24 02:29:16;;;;;;;1.85;1.52;;;;;;;20.24;70.75;99631.19;25682475;23;20339;-63
2022/05/24 02:39:18;;;;;;;2.65;1.92;;;;;;;20.13;70.82;99603.59;25643051;23;1012890;-63
2022/05/24 02:49:19;;;;;;;2.17;1.90;;;;;;;20.21;70.56;99610.78;25689209;23;20016;-62
2022/05/24 02:59:21;;;;;;;2.72;2.20;;;;;;;20.20;70.72;99629.88;25687670;23;20020;-63
2022/05/24 03:09:35;;;;;;;4.55;2.13;;;;;;;20.18;70.71;99638.19;25688989;23;20467;-62
2022/05/24 03:19:36;;;;;;;3.60;2.57;;;;;;;20.16;70.60;99629.41;25688972;23;20392;-62
2022/05/24 03:29:40;;;;;;;2.42;2.15;;;;;;;20.14;70.73;99629.56;25687754;23;20104;-62
2022/05/24 03:39:42;;;;;;;3.25;2.13;;;;;;;20.20;70.98;99652.34;25688393;23;20024;-61
2022/05/24 03:49:43;;;;;;;4.63;2.45;;;;;;;20.32;72.27;99649.19;25687285;23;20525;-62
2022/05/24 03:59:45;;;;;;;2.88;2.22;;;;;;;20.39;72.21;99651.00;25660668;23;20451;-62
2022/05/24 04:09:46;;;;;;;3.72;2.47;;;;;;;20.43;71.67;99652.31;25686691;23;20035;-62
2022/05/24 04:19:48;;;;;;;3.78;2.50;;;;;;;20.33;71.79;99634.66;25685666;23;20475;-62
2022/05/24 04:29:53;;;;;;;4.00;2.80;;;;;;;20.51;72.92;99666.75;25673541;23;20026;-62
2022/05/24 04:39:54;;;;;;;;;;;;;;;20.49;74.42;99675.03;25680144;23;20021;-62
2022/05/24 04:49:58;;;;;;;5.68;3.08;;;;;;;20.49;77.24;99675.03;25680993;23;19919;-62
2022/05/24 05:00:06;;;;;;;4.07;2.55;;;;;;;20.52;76.35;99692.78;25684597;23;20356;-62
2022/05/24 05:10:10;;;;;;;3.67;2.70;;;;;;;20.53;75.98;99727.72;25663636;23;20013;-62
2022/05/24 05:20:12;;;;;;;7.13;3.17;;;;;;;20.54;75.61;99732.09;25692949;23;20306;-62
2022/05/24 05:40:34;;;;;;;5.35;3.10;;;;;;;20.55;74.14;99746.47;25682315;23;20075;-62
2022/05/24 05:50:38;;;;;;;4.20;3.20;;;;;;;20.47;75.11;99733.03;25678148;23;20020;-62
2022/05/24 06:00:40;;;;;;;5.07;2.90;;;;;;;20.42;75.35;99756.03;25678391;23;20481;-63
2022/05/24 06:10:43;;;;;;;6.07;2.85;;;;;;;20.40;75.27;99731.06;25677688;23;20087;-63
2022/05/24 06:20:44;;;;;;;3.92;2.80;;;;;;;20.38;75.96;99752.03;25647276;23;20024;-63
2022/05/24 06:30:45;;;;;;;6.35;3.10;;;;;;;20.17;75.48;99743.72;25650832;23;20459;-64
2022/05/24 06:40:50;;;;;;;3.53;2.80;;;;;;;20.30;76.48;99803.41;25679062;23;20091;-63
2022/05/24 06:50:51;;;;;;;5.28;2.85;;;;;;;20.37;76.59;99800.84;25674100;23;20027;-63
2022/05/24 07:11:15;;;;;;;3.00;2.47;;;;;;;20.14;76.31;99798.97;25683551;23;20456;-61
2022/05/24 07:21:17;;;;;;;4.33;2.83;;;;;;;20.33;76.15;99865.25;25684497;23;20076;-60
2022/05/24 07:31:19;;;;;;;4.35;2.55;;;;;;;20.35;77.83;99865.06;25685178;23;20023;-63
2022/05/24 07:51:46;;;;;;;3.88;2.75;;;;;;;20.35;76.41;99867.75;25661631;23;20028;-61
2022/05/24 08:01:48;;;;;;;3.75;2.47;;;;;;;20.37;75.97;99892.75;25682615;23;20056;-62
2022/05/24 08:11:49;;;;;;;4.38;2.60;;;;;;;20.42;75.46;99895.75;25680934;23;20028;-61
2022/05/24 08:21:50;;;;;;;2.60;2.22;;;;;;;20.52;75.17;99909.06;25674121;23;20028;-62
2022/05/24 08:31:52;;;;;;;4.63;2.28;;;;;;;20.84;73.49;99918.03;25668968;23;20083;-63
2022/05/24 08:42:11;;;;;;;3.45;2.17;;;;;;;20.80;72.32;99917.53;25677884;23;20020;-62
2022/05/24 08:52:13;;;;;;;3.05;1.80;;;;;;;20.84;72.05;99920.72;25651081;23;20016;-61
2022/05/24 09:02:14;;;;;;;2.83;2.00;;;;;;;20.90;72.55;99911.88;25665577;23;20020;-62
2022/05/24 09:12:25;;;;;;;3.30;1.80;;;;;;;20.98;71.56;99919.09;25680670;23;20099;-62
2022/05/24 09:22:31;;;;;;;2.55;1.73;;;;;;;20.96;70.41;99921.97;25669610;23;20339;-61
2022/05/24 09:32:39;;;;;;;2.80;1.40;;;;;;;21.01;70.66;99946.63;25631578;23;20016;-62
2022/05/24 09:42:41;;;;;;;2.70;1.70;;;;;;;20.94;70.02;99951.09;25655041;23;20024;-62
2022/05/24 09:52:46;;;;;;;2.22;1.42;;;;;;;20.92;69.13;99972.06;25665304;23;20104;-62
2022/05/24 10:02:47;;;;;;;3.65;1.50;;;;;;;20.97;69.15;99975.06;25681202;23;20063;-63
2022/05/24 10:13:05;;;;;;;2.03;1.10;;;;;;;21.03;67.94;99994.31;25681031;23;20035;-64
2022/05/24 10:23:16;;;;;;;2.20;1.27;;;;;;;21.00;67.70;100003.66;25654132;23;20017;-64
2022/05/24 10:44:05;;;;;;;2.38;1.00;;;;;;;21.09;65.53;100070.22;25678783;23;20028;-63
2022/05/24 10:54:40;;;;;;;0.85;0.70;;;;;;;21.14;65.04;100077.78;25671643;23;20027;-63
2022/05/24 11:05:11;;;;;;;1.40;0.75;;;;;;;21.03;64.80;100089.03;25673246;23;20411;-64
2022/05/24 11:15:18;;;;;;;0.80;0.70;;;;;;;21.03;65.15;100132.31;25678118;23;20025;-63
2022/05/24 11:25:26;;;;;;;1.25;0.70;;;;;;;20.98;65.33;100152.63;25656767;23;20028;-64
2022/05/24 11:35:35;;;;;;;0.63;0.55;;;;;;;20.98;65.45;100158.03;25683243;23;20013;-64
2022/05/24 11:45:36;;;;;;;1.10;0.60;;;;;;;20.95;65.38;100162.94;25647798;23;20016;-64
2022/05/24 11:56:13;;;;;;;1.35;0.60;;;;;;;20.93;65.38;100176.66;25668393;23;20071;-64
2022/05/24 12:16:53;;;;;;;;;;;;;;;21.03;66.01;100191.84;25652942;23;20024;-64
2022/05/24 12:27:13;;;;;;;0.40;0.40;;;;;;;21.07;65.88;100194.06;25677811;23;20315;-64
2022/05/24 12:37:25;;;;;;;0.40;0.40;;;;;;;21.12;65.72;100201.63;25651998;23;20016;-64
2022/05/24 12:47:27;;;;;;;1.45;0.45;;;;;;;21.09;65.81;100185.75;25641112;23;20478;-63
2022/05/24 12:57:32;;;;;;;0.85;0.40;;;;;;;21.17;67.11;100204.66;25664399;23;20079;-63
2022/05/24 13:07:39;;;;;;;0.50;0.50;;;;;;;21.12;67.91;100239.50;25638749;23;20107;-63
2022/05/24 13:17:42;;;;;;;0.88;0.40;;;;;;;21.06;67.98;100260.03;25666848;23;20012;-63
2022/05/24 13:27:49;;;;;;;1.95;0.47;;;;;;;21.06;67.23;100259.16;25672047;23;20071;-63
2022/05/24 13:37:56;;;;;;;0.82;0.40;;;;;;;21.07;66.22;100268.97;25675959;23;20091;-63
2022/05/24 13:47:59;;;;;;;0.88;0.43;;;;;;;21.12;66.18;100277.41;25674662;23;20078;-63
2022/05/24 13:58:05;;;;;;;0.65;0.47;;;;;;;21.20;67.84;100273.84;25648661;23;20349;-63
2022/05/24 14:08:07;;;;;;;0.93;0.55;;;;;;;21.22;67.21;100288.03;25678313;23;20115;-63
2022/05/24 14:18:09;;;;;;;2.80;0.70;;;;;;;21.20;66.22;100296.31;25674380;23;20017;-63
2022/05/24 14:28:10;;;;;;;0.40;0.40;;;;;;;21.23;65.56;100296.00;25680602;23;20020;-63
2022/05/24 14:38:12;;;;;;;0.95;0.50;;;;;;;21.07;63.91;100279.78;25678309;23;20031;-63
2022/05/24 14:48:15;;;;;;;0.77;0.50;;;;;;;21.22;63.38;100315.13;25675191;23;20063;-64
2022/05/24 14:58:16;;;;;;;2.53;0.50;;;;;;;21.22;62.94;100332.22;25680850;23;20554;-63
2022/05/24 15:18:38;;;;;;;0.73;0.70;;;;;;;21.29;62.33;100348.59;25666789;23;20021;-65
2022/05/24 15:28:51;;;;;;;2.72;1.00;;;;;;;21.48;63.58;100369.03;25667548;23;20017;-67
2022/05/24 15:38:53;;;;;;;10.02;3.10;;;;;;;21.61;64.93;100384.75;25669513;23;20013;-66
2022/05/24 15:48:55;;;;;;;14.18;4.03;;;;;;;21.84;67.99;100395.72;25641383;23;20024;-63
2022/05/24 15:58:57;;;;;;;8.02;2.70;;;;;;;21.84;68.10;100400.28;25663223;23;20028;-63
2022/05/24 16:19:19;;;;;;;8.82;2.25;;;;;;;21.73;67.33;100429.44;25665950;23;20021;-66
2022/05/24 16:29:21;;;;;;;7.28;1.90;;;;;;;21.71;65.39;100438.78;25660279;23;20016;-65
2022/05/24 16:39:23;;;;;;;5.05;1.50;;;;;;;21.65;64.07;100445.72;25666272;23;20025;-65
2022/05/24 16:49:24;;;;;;;2.38;1.10;;;;;;;21.57;63.18;100449.25;25669202;23;20075;-65
2022/05/24 16:59:25;;;;;;;2.95;1.33;;;;;;;21.55;62.82;100472.94;25675339;23;20071;-66
2022/05/24 17:09:27;;;;;;;3.88;1.40;;;;;;;21.52;62.63;100478.72;25681012;23;20447;-65
2022/05/24 17:19:28;;;;;;;2.38;0.95;;;;;;;21.46;61.95;100492.94;25690994;23;20024;-65
2022/05/24 17:29:30;;;;;;;1.55;0.90;;;;;;;21.37;61.06;100500.19;25691301;23;20020;-65
2022/05/24 17:39:44;;;;;;;3.15;0.80;;;;;;;21.30;60.63;100510.88;25690251;23;20016;-65
2022/05/24 17:49:47;;;;;;;1.95;0.77;;;;;;;21.07;60.13;100496.28;25690013;23;20052;-65
2022/05/24 17:59:49;;;;;;;1.88;0.90;;;;;;;21.04;59.84;100499.34;25689721;23;20119;-66
2022/05/24 18:09:52;;;;;;;1.98;0.85;;;;;;;21.14;59.79;100527.09;25688949;23;20024;-65
2022/05/24 18:19:53;;;;;;;0.88;0.60;;;;;;;21.10;59.65;100532.00;25662770;23;20033;-65
2022/05/24 18:40:17;;;;;;;1.77;0.75;;;;;;;21.01;59.54;100539.25;25650623;23;20023;-64
2022/05/24 18:50:19;;;;;;;2.00;0.68;;;;;;;20.83;60.66;100525.03;25633967;23;20050;-65
2022/05/24 19:00:22;;;;;;;3.58;0.70;;;;;;;20.81;61.01;100551.41;25687507;23;20087;-65
2022/05/24 19:10:24;;;;;;;1.88;0.85;;;;;;;20.87;60.65;100577.78;25685522;23;20485;-65
2022/05/24 19:20:27;;;;;;;0.88;0.77;;;;;;;20.84;60.76;100589.78;25659368;23;20350;-66
2022/05/24 19:30:28;;;;;;;2.53;0.73;;;;;;;20.81;61.18;100605.50;25658672;23;20412;-65
2022/05/24 19:50:51;;;;;;;2.13;0.60;;;;;;;20.74;60.90;100626.91;25684360;23;20531;-66
2022/05/24 20:00:52;;;;;;;1.77;0.90;;;;;;;20.69;60.58;100640.91;25658898;23;20028;-65
2022/05/24 20:10:53;;;;;;;0.45;0.45;;;;;;;20.69;60.42;100657.13;25658007;23;20020;-66
2022/05/24 20:20:55;;;;;;;1.55;0.63;;;;;;;20.50;60.08;100647.38;25683901;23;20361;-65
2022/05/24 20:30:56;;;;;;;1.05;0.50;;;;;;;20.62;60.59;100685.84;25684348;23;20024;-65
2022/05/24 20:40:58;;;;;;;1.83;0.75;;;;;;;20.61;60.20;100700.38;25683788;23;20021;-65
2022/05/24 20:51:01;;;;;;;0.88;0.60;;;;;;;20.58;59.58;100706.09;25657474;23;20024;-65
2022/05/24 21:01:03;;;;;;;1.23;0.70;;;;;;;20.56;59.53;100706.28;25683622;23;20029;-65
2022/05/24 21:11:04;;;;;;;0.68;0.50;;;;;;;20.48;59.63;100708.88;25682765;23;20029;-65
2022/05/24 21:21:08;;;;;;;1.17;0.60;;;;;;;20.51;59.30;100732.06;25683459;23;20321;-65
2022/05/24 21:31:09;;;;;;;0.50;0.40;;;;;;;20.46;58.85;100729.00;25680917;23;20530;-65
2022/05/24 21:41:11;;;;;;;0.90;0.50;;;;;;;20.47;58.91;100744.22;25682395;23;20020;-65
2022/05/24 21:51:14;;;;;;;0.98;0.50;;;;;;;20.45;59.08;100757.06;25685245;23;20016;-66
2022/05/24 22:01:15;;;;;;;2.10;0.70;;;;;;;20.40;59.16;100771.88;25690025;23;20028;-65
2022/05/24 22:11:19;;;;;;;0.50;0.50;;;;;;;20.38;59.04;100773.91;25690470;23;20028;-65
2022/05/24 22:21:22;;;;;;;0.90;0.70;;;;;;;20.15;58.96;100746.50;25687354;23;20031;-66
2022/05/24 22:31:24;;;;;;;0.50;0.50;;;;;;;20.31;58.81;100774.66;25688844;23;20021;-65
2022/05/24 22:41:25;;;;;;;0.40;0.40;;;;;;;20.30;58.71;100773.81;25688357;23;20024;-66
2022/05/24 22:51:28;;;;;;;0.90;0.55;;;;;;;20.27;58.59;100793.03;25686697;23;20031;-65
2022/05/24 23:01:30;;;;;;;1.02;0.80;;;;;;;20.24;58.52;100794.22;25687604;23;20447;-65
2022/05/24 23:11:31;;;;;;;0.90;0.60;;;;;;;20.22;58.54;100787.25;25686812;23;20024;-65
2022/05/24 23:21:33;;;;;;;0.80;0.50;;;;;;;20.19;58.25;100803.78;25687477;23;20024;-65
2022/05/24 23:31:36;;;;;;;1.25;0.63;;;;;;;20.13;57.70;100808.81;25686265;23;20099;-65
2022/05/24 23:41:38;;;;;;;1.10;0.57;;;;;;;20.11;57.79;100805.41;25685236;23;20014;-65
2022/05/24 23:51:40;;;;;;;0.82;0.70;;;;;;;20.09;57.93;100817.34;25684255;23;20020;-65
